Time;durP1;ratioP1;P1;durP2;ratioP2;P2;SDS_P1;SDS_P2;PMS_P1;PMS_P2;Temp;Humidity;BMP_temperature;BMP_pressure;BME280_temperature;BME280_humidity;BME280_pressure;Samples;Min_cycle;Max_cycle;Signal;HPM_P1;HPM_P2
2022/05/16 00:01:58;;;;;;;5.33;4.57;;;17.20;72.50;;;;;;5052716;28;20525;-64
2022/05/16 00:04:25;;;;;;;5.00;3.83;;;17.20;72.50;;;;;;5052858;28;21001;-63
2022/05/16 00:06:52;;;;;;;5.97;4.30;;;17.20;72.00;;;;;;5052131;28;20520;-63
2022/05/16 00:09:19;;;;;;;4.53;3.50;;;17.20;71.50;;;;;;5053084;28;20445;-64
2022/05/16 00:11:48;;;;;;;6.37;4.63;;;17.20;71.50;;;;;;5052645;28;20441;-64
2022/05/16 00:14:18;;;;;;;8.20;4.60;;;17.20;71.50;;;;;;5052661;28;20437;-64
2022/05/16 00:16:45;;;;;;;5.70;4.17;;;17.20;71.90;;;;;;5052495;28;20793;-64
2022/05/16 00:19:12;;;;;;;5.67;4.40;;;17.20;71.90;;;;;;5052726;28;20444;-64
2022/05/16 00:21:40;;;;;;;6.57;4.73;;;17.10;71.90;;;;;;5051881;28;20437;-64
2022/05/16 00:24:09;;;;;;;4.77;4.00;;;17.10;72.40;;;;;;5052272;28;20484;-63
2022/05/16 00:26:37;;;;;;;6.33;4.20;;;17.00;72.40;;;;;;5052634;28;20497;-63
2022/05/16 00:29:05;;;;;;;5.10;4.30;;;17.00;72.70;;;;;;5052439;28;20911;-64
2022/05/16 00:31:33;;;;;;;6.87;4.23;;;17.00;72.30;;;;;;5052020;28;20440;-64
2022/05/16 00:34:00;;;;;;;6.40;3.90;;;17.00;72.70;;;;;;5051961;28;20441;-63
2022/05/16 00:36:27;;;;;;;6.03;4.00;;;17.00;72.50;;;;;;5051998;28;20441;-63
2022/05/16 00:38:55;;;;;;;6.07;4.50;;;17.00;72.70;;;;;;5051673;28;20858;-64
2022/05/16 00:41:22;;;;;;;5.10;3.70;;;17.00;73.00;;;;;;5051960;28;20499;-64
2022/05/16 00:43:55;;;;;;;4.97;3.90;;;17.00;73.20;;;;;;5051971;28;20491;-64
2022/05/16 00:46:26;;;;;;;6.60;4.90;;;17.00;73.90;;;;;;5052082;28;20469;-63
2022/05/16 00:48:55;;;;;;;6.83;3.77;;;17.00;74.10;;;;;;5051577;28;20850;-63
2022/05/16 00:51:31;;;;;;;6.90;4.47;;;17.00;74.30;;;;;;5051938;28;20491;-65
2022/05/16 00:54:06;;;;;;;5.37;4.70;;;17.00;74.30;;;;;;5051807;28;20440;-64
2022/05/16 00:56:34;;;;;;;5.63;3.97;;;17.00;74.30;;;;;;5051790;28;20531;-64
2022/05/16 00:59:02;;;;;;;7.10;4.80;;;17.00;74.20;;;;;;5051375;28;20441;-64
2022/05/16 01:07:00;;;;;;;4.00;3.40;;;16.80;74.70;;;;;;5051900;28;20424;-63
2022/05/16 01:09:28;;;;;;;4.83;4.20;;;16.70;75.10;;;;;;5054981;28;20433;-64
2022/05/16 01:11:57;;;;;;;5.07;4.20;;;16.70;75.50;;;;;;5058302;28;20444;-64
2022/05/16 01:14:46;;;;;;;6.70;4.40;;;16.70;75.60;;;;;;5058239;28;20437;-64
2022/05/16 01:17:15;;;;;;;5.83;5.03;;;16.70;75.60;;;;;;5058682;28;20441;-64
2022/05/16 01:19:42;;;;;;;7.07;5.00;;;16.60;75.60;;;;;;5057588;28;20472;-64
2022/05/16 01:22:23;;;;;;;6.70;4.90;;;16.70;75.80;;;;;;5058175;28;20436;-63
2022/05/16 01:24:51;;;;;;;5.23;4.47;;;16.70;76.20;;;;;;5058209;28;20443;-64
2022/05/16 01:27:18;;;;;;;8.43;5.40;;;16.70;76.30;;;;;;5058457;28;20437;-64
2022/05/16 01:29:45;;;;;;;9.43;5.63;;;16.70;76.50;;;;;;5058087;28;20436;-64
2022/05/16 01:32:13;;;;;;;12.73;5.57;;;16.80;76.60;;;;;;5058678;28;20801;-64
2022/05/16 01:34:40;;;;;;;6.83;4.77;;;16.80;76.70;;;;;;5058530;28;20441;-64
2022/05/16 01:37:08;;;;;;;8.07;5.60;;;16.80;76.70;;;;;;5058171;28;20961;-63
2022/05/16 01:39:37;;;;;;;8.33;5.93;;;16.90;76.80;;;;;;5058082;28;20439;-63
2022/05/16 01:42:05;;;;;;;5.70;4.93;;;16.80;77.10;;;;;;5058394;28;20490;-64
2022/05/16 01:44:32;;;;;;;6.63;5.00;;;16.80;77.40;;;;;;5057724;28;20554;-64
2022/05/16 01:47:01;;;;;;;6.50;5.00;;;16.80;77.50;;;;;;5058097;28;20476;-64
2022/05/16 01:49:28;;;;;;;7.37;5.03;;;16.80;77.80;;;;;;5057669;28;20530;-64
2022/05/16 01:51:55;;;;;;;6.83;5.10;;;16.70;77.40;;;;;;5058179;28;21005;-64
2022/05/16 01:54:23;;;;;;;6.73;5.20;;;16.70;77.70;;;;;;5058032;28;20532;-63
2022/05/16 01:56:51;;;;;;;6.50;5.10;;;16.70;78.10;;;;;;5058260;28;20803;-64
2022/05/16 01:59:19;;;;;;;5.97;4.70;;;16.70;78.50;;;;;;5053478;28;20484;-64
2022/05/16 02:01:47;;;;;;;6.57;4.90;;;16.70;78.30;;;;;;5057112;28;20524;-64
2022/05/16 02:04:16;;;;;;;7.63;5.17;;;16.70;78.20;;;;;;5057196;28;20512;-63
2022/05/16 02:06:44;;;;;;;8.07;4.43;;;16.80;78.40;;;;;;5057470;28;20524;-64
2022/05/16 02:09:11;;;;;;;8.67;4.60;;;16.80;78.40;;;;;;5056623;28;20516;-64
2022/05/16 02:11:38;;;;;;;6.10;5.50;;;16.90;78.60;;;;;;5058056;28;20913;-64
2022/05/16 02:14:07;;;;;;;6.83;4.87;;;16.90;78.60;;;;;;5058320;28;20440;-64
2022/05/16 02:16:34;;;;;;;7.03;5.33;;;16.90;78.70;;;;;;5057709;28;20468;-64
2022/05/16 02:19:01;;;;;;;5.20;4.70;;;17.00;78.90;;;;;;5056682;28;20531;-64
2022/05/16 02:26:57;;;;;;;6.10;4.93;;;17.00;79.20;;;;;;5054645;28;20907;-65
2022/05/16 02:29:26;;;;;;;5.90;4.53;;;17.10;79.40;;;;;;5054884;28;20437;-64
2022/05/16 02:31:54;;;;;;;9.53;5.43;;;17.10;79.40;;;;;;5054314;28;20443;-64
2022/05/16 02:34:21;;;;;;;8.10;5.87;;;17.20;79.60;;;;;;5055029;28;20444;-64
2022/05/16 02:36:49;;;;;;;8.33;5.60;;;17.10;79.20;;;;;;5054048;28;20468;-64
2022/05/16 02:39:17;;;;;;;6.90;6.20;;;17.20;79.30;;;;;;5054472;28;20445;-65
2022/05/16 02:41:44;;;;;;;9.07;6.00;;;17.20;79.80;;;;;;5054000;28;20927;-64
2022/05/16 02:44:11;;;;;;;6.00;5.40;;;17.20;79.60;;;;;;5054506;28;20488;-64
2022/05/16 02:46:41;;;;;;;8.50;5.33;;;17.20;79.80;;;;;;5053893;28;20469;-65
2022/05/16 02:49:08;;;;;;;7.37;5.63;;;17.30;80.00;;;;;;5054404;28;20439;-65
2022/05/16 02:51:35;;;;;;;7.40;5.63;;;17.30;80.30;;;;;;5053941;28;20440;-65
2022/05/16 02:54:03;;;;;;;9.60;5.60;;;17.30;80.10;;;;;;5053984;28;20494;-64
2022/05/16 02:56:30;;;;;;;6.30;5.70;;;17.40;80.00;;;;;;5053860;28;20437;-65
2022/05/16 02:58:58;;;;;;;4.87;4.03;;;17.40;80.50;;;;;;5053999;28;20841;-65
2022/05/16 03:01:25;;;;;;;6.77;5.20;;;17.50;80.60;;;;;;5054173;28;20440;-64
2022/05/16 03:03:53;;;;;;;5.40;4.90;;;17.50;80.60;;;;;;5053518;28;21068;-65
2022/05/16 03:06:22;;;;;;;6.73;5.47;;;17.50;80.50;;;;;;5053996;28;20857;-64
2022/05/16 03:08:49;;;;;;;7.07;5.40;;;17.60;80.50;;;;;;5053295;28;20445;-64
2022/05/16 03:11:16;;;;;;;8.43;5.40;;;17.60;80.40;;;;;;5054024;28;20532;-64
2022/05/16 03:13:44;;;;;;;13.83;5.80;;;17.60;80.50;;;;;;5053739;28;20437;-64
2022/05/16 03:16:11;;;;;;;6.77;5.93;;;17.60;81.20;;;;;;5053778;28;20503;-65
2022/05/16 03:18:39;;;;;;;10.47;5.53;;;17.60;81.70;;;;;;5053625;28;20831;-64
2022/05/16 03:21:08;;;;;;;12.40;5.57;;;17.60;81.70;;;;;;5053750;28;20429;-64
2022/05/16 03:23:36;;;;;;;5.80;5.07;;;17.60;82.50;;;;;;5053037;28;20480;-64
2022/05/16 03:26:03;;;;;;;9.90;5.50;;;17.70;81.60;;;;;;5053513;28;20475;-64
2022/05/16 03:28:30;;;;;;;7.20;5.27;;;17.70;81.90;;;;;;5053403;28;20483;-64
2022/05/16 03:30:59;;;;;;;4.97;4.47;;;17.70;82.20;;;;;;5053502;28;20523;-64
2022/05/16 03:33:27;;;;;;;6.23;5.63;;;17.70;82.60;;;;;;5052762;28;20467;-64
2022/05/16 03:35:55;;;;;;;5.97;5.00;;;17.60;82.60;;;;;;5053255;28;20943;-64
2022/05/16 03:41:10;;;;;;;7.50;6.03;;;17.60;82.90;;;;;;5053124;28;20432;-64
2022/05/16 03:43:39;;;;;;;11.03;6.07;;;17.70;83.10;;;;;;5053312;28;21081;-64
2022/05/16 03:46:07;;;;;;;7.70;6.37;;;17.70;83.20;;;;;;5053102;28;20433;-64
2022/05/16 03:48:35;;;;;;;10.50;7.17;;;17.60;83.00;;;;;;5053315;28;20981;-64
2022/05/16 03:51:04;;;;;;;7.00;6.20;;;17.60;83.80;;;;;;5053081;28;20472;-64
2022/05/16 03:53:35;;;;;;;7.50;6.43;;;17.60;83.00;;;;;;5053050;28;20927;-64
2022/05/16 03:56:02;;;;;;;14.40;5.80;;;17.70;83.30;;;;;;5052741;28;21000;-64
2022/05/16 03:58:34;;;;;;;10.10;6.97;;;17.70;83.30;;;;;;5053236;28;20503;-64
2022/05/16 04:01:02;;;;;;;10.20;5.90;;;17.70;83.50;;;;;;5052797;28;20457;-64
2022/05/16 04:03:29;;;;;;;8.10;6.30;;;17.70;83.70;;;;;;5053097;28;20487;-64
2022/05/16 04:05:56;;;;;;;11.13;6.33;;;17.70;83.90;;;;;;5052918;28;20483;-64
2022/05/16 04:08:23;;;;;;;12.43;6.40;;;17.70;84.00;;;;;;5053123;28;20441;-64
2022/05/16 04:10:52;;;;;;;8.17;5.93;;;17.70;84.60;;;;;;5052787;28;20928;-68
2022/05/16 04:13:19;;;;;;;7.50;5.93;;;17.60;85.10;;;;;;5052943;28;20469;-65
2022/05/16 04:15:46;;;;;;;12.63;6.60;;;17.70;85.00;;;;;;5052754;28;20449;-64
2022/05/16 04:18:13;;;;;;;10.23;5.27;;;17.70;85.10;;;;;;5053095;28;20799;-64
2022/05/16 04:20:41;;;;;;;8.00;6.00;;;17.70;85.30;;;;;;5052708;28;20479;-64
2022/05/16 04:23:08;;;;;;;7.33;5.97;;;17.70;85.50;;;;;;5052402;28;20444;-65
2022/05/16 04:25:37;;;;;;;5.90;5.20;;;17.70;85.60;;;;;;5053067;28;20467;-64
2022/05/16 04:28:07;;;;;;;6.17;5.57;;;17.70;85.50;;;;;;5052535;28;20440;-65
2022/05/16 04:30:35;;;;;;;7.70;6.03;;;17.70;85.90;;;;;;5052916;28;20444;-64
2022/05/16 04:33:02;;;;;;;6.17;5.57;;;17.70;85.90;;;;;;5052298;28;20441;-64
2022/05/16 04:35:29;;;;;;;9.83;5.50;;;17.80;86.40;;;;;;5052745;28;20448;-69
2022/05/16 04:37:57;;;;;;;6.60;5.47;;;17.80;86.60;;;;;;5052247;28;20429;-64
2022/05/16 04:40:25;;;;;;;7.10;5.63;;;17.70;86.30;;;;;;5052467;28;20448;-64
2022/05/16 04:42:52;;;;;;;6.43;4.40;;;17.80;86.60;;;;;;5051977;28;20434;-64
2022/05/16 04:45:22;;;;;;;5.10;4.60;;;17.80;86.30;;;;;;5051955;28;20572;-64
2022/05/16 04:47:52;;;;;;;5.67;5.10;;;17.70;86.40;;;;;;5052161;28;20805;-64
2022/05/16 04:50:25;;;;;;;7.87;5.53;;;17.70;86.70;;;;;;5052445;28;20441;-65
2022/05/16 04:52:52;;;;;;;9.97;5.80;;;17.70;86.60;;;;;;5052181;28;20499;-64
2022/05/16 04:55:20;;;;;;;8.70;6.53;;;17.70;86.90;;;;;;5052304;28;20931;-64
2022/05/16 04:57:47;;;;;;;8.63;6.23;;;17.80;87.20;;;;;;5051785;28;20441;-64
2022/05/16 05:00:19;;;;;;;9.70;7.13;;;17.80;87.40;;;;;;5051925;28;20445;-65
2022/05/16 05:02:48;;;;;;;6.80;5.67;;;17.90;87.50;;;;;;5052471;28;20949;-64
2022/05/16 05:05:17;;;;;;;10.60;9.40;;;17.90;87.70;;;;;;5051822;28;20496;-64
2022/05/16 05:07:45;;;;;;;15.40;9.33;;;18.00;87.90;;;;;;5052257;28;20524;-64
2022/05/16 05:15:44;;;;;;;12.07;6.70;;;18.00;88.30;;;;;;5052111;28;20836;-64
2022/05/16 05:18:13;;;;;;;12.37;7.30;;;18.00;88.40;;;;;;5052076;28;20441;-64
2022/05/16 05:20:44;;;;;;;9.90;6.80;;;18.00;89.20;;;;;;5051896;28;20935;-64
2022/05/16 05:23:11;;;;;;;9.40;6.13;;;18.00;89.60;;;;;;5051582;28;20963;-65
2022/05/16 05:25:40;;;;;;;6.93;5.60;;;18.10;90.00;;;;;;5052337;28;20504;-64
2022/05/16 05:28:07;;;;;;;8.23;5.60;;;18.20;90.00;;;;;;5052281;28;20452;-64
2022/05/16 05:30:35;;;;;;;9.30;6.40;;;18.30;90.00;;;;;;5051327;28;20477;-64
2022/05/16 05:33:02;;;;;;;8.57;6.33;;;18.40;89.70;;;;;;5052070;28;20433;-64
2022/05/16 05:35:31;;;;;;;6.60;5.27;;;18.50;89.50;;;;;;5051429;28;20437;-64
2022/05/16 05:37:58;;;;;;;10.50;6.40;;;18.60;89.60;;;;;;5047671;28;20437;-65
2022/05/16 05:40:26;;;;;;;7.10;6.33;;;18.70;89.00;;;;;;5049077;28;20531;-65
2022/05/16 05:42:53;;;;;;;12.10;7.57;;;18.80;88.60;;;;;;5049614;28;20494;-64
2022/05/16 05:45:21;;;;;;;8.00;6.80;;;18.90;88.30;;;;;;5049718;28;20989;-64
2022/05/16 05:47:48;;;;;;;8.00;7.20;;;19.00;90.00;;;;;;5049290;28;20821;-65
2022/05/16 05:50:15;;;;;;;12.00;6.57;;;19.10;90.30;;;;;;5049271;28;20490;-67
2022/05/16 05:52:46;;;;;;;9.27;6.37;;;19.20;90.00;;;;;;5049658;28;20437;-64
2022/05/16 05:55:14;;;;;;;8.20;5.37;;;19.40;88.80;;;;;;5046923;28;20464;-64
2022/05/16 05:57:41;;;;;;;6.73;5.07;;;19.50;87.90;;;;;;5052244;28;20517;-65
2022/05/16 06:00:11;;;;;;;6.30;5.30;;;19.70;88.00;;;;;;5052644;28;20548;-64
2022/05/16 06:02:40;;;;;;;5.80;4.57;;;19.80;86.20;;;;;;5048510;28;20449;-64
2022/05/16 06:05:08;;;;;;;5.70;3.87;;;19.90;87.00;;;;;;5050848;28;21005;-64
2022/05/16 06:07:36;;;;;;;8.60;4.83;;;20.00;84.10;;;;;;5050853;28;21010;-64
2022/05/16 06:10:06;;;;;;;5.40;4.57;;;20.00;83.30;;;;;;5051327;28;20448;-65
2022/05/16 06:12:33;;;;;;;4.40;3.97;;;20.00;83.30;;;;;;5052331;28;20440;-64
2022/05/16 06:15:01;;;;;;;6.43;4.30;;;20.10;81.50;;;;;;5051466;28;20452;-65
2022/05/16 06:17:28;;;;;;;10.87;5.07;;;20.10;81.10;;;;;;5049271;28;20449;-65
2022/05/16 06:19:56;;;;;;;6.83;4.93;;;20.10;81.50;;;;;;5051274;28;20463;-64
2022/05/16 06:22:24;;;;;;;7.57;5.60;;;20.10;81.60;;;;;;5051478;28;20451;-64
2022/05/16 06:27:37;;;;;;;9.50;5.30;;;20.30;81.70;;;;;;5044320;28;20885;-69
2022/05/16 06:30:06;;;;;;;10.13;4.57;;;20.40;80.90;;;;;;5040598;28;21230;-64
2022/05/16 06:32:33;;;;;;;8.33;5.00;;;20.50;80.70;;;;;;5051016;28;20441;-64
2022/05/16 06:35:02;;;;;;;6.00;4.10;;;20.80;80.20;;;;;;5051545;28;20461;-64
2022/05/16 06:37:29;;;;;;;6.13;4.20;;;21.10;79.60;;;;;;5050474;28;20472;-65
2022/05/16 06:39:56;;;;;;;5.53;4.30;;;21.30;79.60;;;;;;5051566;28;20491;-64
2022/05/16 06:42:23;;;;;;;6.73;4.83;;;21.40;79.00;;;;;;5052585;28;20599;-64
2022/05/16 06:44:52;;;;;;;4.77;4.23;;;21.60;78.90;;;;;;5053251;28;20595;-65
2022/05/16 06:47:19;;;;;;;6.47;4.47;;;21.60;78.30;;;;;;5053663;28;20567;-65
2022/05/16 06:49:46;;;;;;;5.83;4.87;;;21.70;76.40;;;;;;5053114;28;20445;-66
2022/05/16 06:52:13;;;;;;;5.67;5.00;;;21.70;76.00;;;;;;5052912;28;20520;-65
2022/05/16 06:54:40;;;;;;;8.87;5.13;;;21.70;76.00;;;;;;5053652;28;20452;-65
2022/05/16 06:57:07;;;;;;;5.13;4.47;;;21.70;76.80;;;;;;5054295;28;20469;-64
2022/05/16 06:59:34;;;;;;;6.90;4.93;;;21.80;76.90;;;;;;5053618;28;20519;-64
2022/05/16 07:02:03;;;;;;;8.73;5.03;;;21.80;77.60;;;;;;5054101;28;20528;-64
2022/05/16 07:04:30;;;;;;;12.20;5.80;;;21.90;78.00;;;;;;5050323;28;20562;-65
2022/05/16 07:06:57;;;;;;;7.30;5.30;;;22.00;78.70;;;;;;5053074;28;20447;-64
2022/05/16 07:09:24;;;;;;;7.20;5.87;;;22.20;78.60;;;;;;5053388;28;20531;-65
2022/05/16 07:11:51;;;;;;;7.20;5.03;;;22.30;78.30;;;;;;5053642;28;20524;-65
2022/05/16 07:14:18;;;;;;;10.60;5.83;;;22.40;77.90;;;;;;5053521;28;20536;-64
2022/05/16 07:16:46;;;;;;;7.50;4.13;;;22.60;78.00;;;;;;5053219;28;20524;-64
2022/05/16 07:19:15;;;;;;;12.50;4.93;;;22.80;77.70;;;;;;5053103;28;20521;-66
2022/05/16 07:21:41;;;;;;;8.07;6.00;;;23.00;76.30;;;;;;5052892;28;20999;-65
2022/05/16 07:24:09;;;;;;;8.30;5.20;;;23.20;74.10;;;;;;5053089;28;20468;-65
2022/05/16 07:29:21;;;;;;;4.90;3.63;;;23.70;72.50;;;;;;5052984;28;20444;-65
2022/05/16 07:31:51;;;;;;;5.63;4.47;;;23.90;70.80;;;;;;5053372;28;20547;-65
2022/05/16 07:34:19;;;;;;;7.97;3.80;;;24.10;68.70;;;;;;5053177;28;20460;-65
2022/05/16 07:36:46;;;;;;;6.47;3.13;;;24.30;64.50;;;;;;5052950;28;20989;-65
2022/05/16 07:39:13;;;;;;;8.53;6.37;;;24.30;62.00;;;;;;5052856;28;20529;-65
2022/05/16 07:41:40;;;;;;;5.60;4.50;;;24.30;61.00;;;;;;5053295;28;20855;-65
2022/05/16 07:44:07;;;;;;;5.20;4.07;;;24.30;60.20;;;;;;5052995;28;20528;-65
2022/05/16 07:46:34;;;;;;;9.87;4.10;;;24.20;59.20;;;;;;5052758;28;20523;-64
2022/05/16 07:49:01;;;;;;;5.43;3.47;;;24.00;59.10;;;;;;5052693;28;20929;-65
2022/05/16 07:51:30;;;;;;;4.90;3.10;;;23.80;57.90;;;;;;5052822;28;20528;-65
2022/05/16 07:53:57;;;;;;;6.27;2.90;;;23.60;57.90;;;;;;5052773;28;20445;-65
2022/05/16 07:56:23;;;;;;;5.97;3.83;;;23.50;58.40;;;;;;5052776;28;20954;-65
2022/05/16 07:58:50;;;;;;;6.67;3.33;;;23.30;57.80;;;;;;5052347;28;20480;-64
2022/05/16 08:01:17;;;;;;;4.23;3.40;;;23.10;57.70;;;;;;5052182;28;20944;-65
2022/05/16 08:03:44;;;;;;;3.90;3.03;;;22.90;56.90;;;;;;5052779;28;20520;-64
2022/05/16 08:06:11;;;;;;;4.10;3.10;;;22.70;58.00;;;;;;5052610;28;20592;-64
2022/05/16 08:11:24;;;;;;;3.97;2.90;;;22.40;59.10;;;;;;5052334;28;20432;-65
2022/05/16 08:13:50;;;;;;;4.20;2.80;;;22.30;59.40;;;;;;5052164;28;20531;-65
2022/05/16 08:16:17;;;;;;;4.57;3.00;;;22.20;59.60;;;;;;5052495;28;20524;-65
2022/05/16 08:18:44;;;;;;;4.20;3.20;;;22.00;60.00;;;;;;5051178;28;20481;-65
2022/05/16 08:21:12;;;;;;;7.37;2.90;;;21.90;60.90;;;;;;5052490;28;20858;-65
2022/05/16 08:23:41;;;;;;;7.10;3.30;;;21.90;61.30;;;;;;5052272;28;20449;-65
2022/05/16 08:26:08;;;;;;;7.37;2.83;;;21.80;61.70;;;;;;5051801;28;20895;-64
2022/05/16 08:28:36;;;;;;;3.70;2.53;;;21.70;61.40;;;;;;5052009;28;20953;-65
2022/05/16 08:31:10;;;;;;;4.80;3.43;;;21.60;62.30;;;;;;5052122;28;20927;-66
2022/05/16 08:33:39;;;;;;;6.77;2.97;;;21.60;63.00;;;;;;5050475;28;20527;-65
2022/05/16 08:41:50;;;;;;;6.17;3.40;;;21.50;63.70;;;;;;5050360;28;20575;-64
2022/05/16 08:44:22;;;;;;;9.80;3.10;;;21.40;63.10;;;;;;5052090;28;20440;-65
2022/05/16 08:47:00;;;;;;;5.60;2.90;;;21.30;63.30;;;;;;5051754;28;20512;-64
2022/05/16 08:49:32;;;;;;;7.97;3.40;;;21.20;63.20;;;;;;5051346;28;20697;-64
2022/05/16 08:52:05;;;;;;;6.37;2.87;;;21.10;64.20;;;;;;5048735;28;20473;-64
2022/05/16 08:54:40;;;;;;;7.40;3.47;;;20.90;64.10;;;;;;5048588;28;20444;-64
2022/05/16 08:57:11;;;;;;;3.60;2.90;;;20.90;64.60;;;;;;5049047;28;20448;-65
2022/05/16 08:59:44;;;;;;;3.73;2.80;;;20.80;64.20;;;;;;5051450;28;20477;-64
2022/05/16 09:02:16;;;;;;;4.10;3.40;;;20.90;65.10;;;;;;5051844;28;20452;-65
2022/05/16 09:04:51;;;;;;;4.70;2.97;;;21.00;64.40;;;;;;5051844;28;20523;-64
2022/05/16 09:07:27;;;;;;;3.90;2.17;;;21.00;63.60;;;;;;5051465;28;20598;-64
2022/05/16 09:10:02;;;;;;;3.80;3.00;;;21.10;63.70;;;;;;5051582;28;20491;-65
2022/05/16 09:12:35;;;;;;;3.57;2.90;;;21.10;64.00;;;;;;5051782;28;21005;-64
2022/05/16 09:15:13;;;;;;;4.00;2.50;;;21.20;63.90;;;;;;5051737;28;20440;-64
2022/05/16 09:17:53;;;;;;;5.13;2.07;;;21.20;63.20;;;;;;5049021;28;20524;-65
2022/05/16 09:20:32;;;;;;;4.20;2.33;;;21.30;63.00;;;;;;5050266;28;20449;-64
2022/05/16 09:23:07;;;;;;;3.30;2.20;;;21.30;63.10;;;;;;5051664;28;20551;-64
2022/05/16 09:25:45;;;;;;;3.27;2.20;;;21.30;63.20;;;;;;5047971;28;20488;-64
2022/05/16 09:31:02;;;;;;;4.60;2.80;;;21.30;62.40;;;;;;5054613;28;20423;-64
2022/05/16 09:33:30;;;;;;;5.60;2.60;;;21.20;62.40;;;;;;5055737;28;20464;-64
2022/05/16 09:36:02;;;;;;;6.70;2.90;;;21.20;63.00;;;;;;5055701;28;20449;-65
2022/05/16 09:38:30;;;;;;;4.97;2.97;;;21.10;64.80;;;;;;5055270;28;20764;-64
2022/05/16 09:41:10;;;;;;;4.03;2.60;;;21.00;65.40;;;;;;5055164;28;20532;-64
2022/05/16 09:43:42;;;;;;;3.57;2.80;;;20.70;66.00;;;;;;5055882;28;20535;-65
2022/05/16 09:46:23;;;;;;;6.23;3.07;;;20.60;67.10;;;;;;5051276;28;20982;-64
2022/05/16 09:49:02;;;;;;;4.77;3.00;;;20.60;68.20;;;;;;5053154;28;20440;-64
2022/05/16 09:51:31;;;;;;;3.80;2.33;;;20.50;68.40;;;;;;5055221;28;20543;-65
2022/05/16 09:54:13;;;;;;;4.23;3.27;;;20.40;69.30;;;;;;5054995;28;20448;-64
2022/05/16 09:56:55;;;;;;;5.20;3.43;;;20.40;70.80;;;;;;5054990;28;20452;-65
2022/05/16 09:59:38;;;;;;;3.97;2.83;;;20.40;71.20;;;;;;5053241;28;20479;-64
2022/05/16 10:02:13;;;;;;;4.03;2.60;;;20.40;71.20;;;;;;5055170;28;20448;-64
2022/05/16 10:04:43;;;;;;;5.03;2.70;;;20.30;70.60;;;;;;5055047;28;20523;-64
2022/05/16 10:07:11;;;;;;;5.20;2.90;;;20.40;71.50;;;;;;5054707;28;20519;-64
2022/05/16 10:09:41;;;;;;;3.97;3.17;;;20.40;71.60;;;;;;5054348;28;20453;-64
2022/05/16 10:12:12;;;;;;;5.73;4.10;;;20.50;72.20;;;;;;5053745;28;20490;-65
2022/05/16 10:14:41;;;;;;;5.00;3.90;;;20.60;72.80;;;;;;5053744;28;20443;-65
2022/05/16 10:17:11;;;;;;;5.67;3.03;;;20.60;72.10;;;;;;5053645;28;20441;-64
2022/05/16 10:19:40;;;;;;;5.63;3.30;;;20.50;71.60;;;;;;5054824;28;20531;-64
2022/05/16 10:22:12;;;;;;;4.30;3.10;;;20.50;72.40;;;;;;5052963;28;20950;-64
2022/05/16 10:24:43;;;;;;;2.90;2.27;;;20.50;71.80;;;;;;5055433;28;21053;-64
2022/05/16 10:27:14;;;;;;;4.60;2.33;;;20.60;72.10;;;;;;5055845;28;20492;-64
2022/05/16 10:29:48;;;;;;;4.60;3.10;;;20.60;71.60;;;;;;5055665;28;20491;-65
2022/05/16 10:35:13;;;;;;;7.77;6.70;;;20.60;72.60;;;;;;5055511;28;20443;-65
2022/05/16 10:37:44;;;;;;;5.67;3.17;;;20.70;75.10;;;;;;5055448;28;20532;-64
2022/05/16 10:40:23;;;;;;;7.00;3.87;;;20.80;74.50;;;;;;5055375;28;20440;-64
2022/05/16 10:43:00;;;;;;;3.90;2.33;;;21.00;75.20;;;;;;5054047;28;20547;-64
2022/05/16 10:45:29;;;;;;;4.07;2.67;;;21.30;74.90;;;;;;5055415;28;20523;-64
2022/05/16 10:48:05;;;;;;;4.23;3.10;;;21.50;75.60;;;;;;5054758;28;20555;-64
2022/05/16 10:50:39;;;;;;;3.37;2.80;;;21.70;74.60;;;;;;5054899;28;20482;-64
2022/05/16 10:53:11;;;;;;;3.90;2.90;;;21.90;73.60;;;;;;5054700;28;20527;-65
2022/05/16 10:55:43;;;;;;;8.33;2.37;;;22.10;72.80;;;;;;5051847;28;20627;-65
2022/05/16 10:58:40;;;;;;;3.90;2.80;;;22.10;68.90;;;;;;5054399;28;20859;-65
2022/05/16 11:01:13;;;;;;;3.90;2.47;;;22.10;68.80;;;;;;5054986;28;20472;-64
2022/05/16 11:04:13;;;;;;;4.00;2.20;;;22.10;69.90;;;;;;5054023;28;20524;-65
2022/05/16 11:07:07;;;;;;;4.30;3.03;;;22.30;67.80;;;;;;5053819;28;20491;-66
2022/05/16 11:09:43;;;;;;;4.60;3.67;;;22.40;68.70;;;;;;5050555;28;20441;-65
2022/05/16 11:12:17;;;;;;;4.80;2.70;;;22.60;68.10;;;;;;5053927;28;20436;-65
2022/05/16 11:14:52;;;;;;;4.33;2.63;;;22.90;69.60;;;;;;5054493;28;20819;-66
2022/05/16 11:17:25;;;;;;;5.27;2.40;;;23.00;64.00;;;;;;5053672;28;21053;-65
2022/05/16 11:20:01;;;;;;;4.77;3.40;;;23.20;62.20;;;;;;5054870;28;20463;-65
2022/05/16 11:22:39;;;;;;;5.20;3.17;;;23.40;61.80;;;;;;5054534;28;20756;-65
2022/05/16 11:25:15;;;;;;;4.93;2.60;;;23.70;61.00;;;;;;5054177;28;20442;-64
2022/05/16 11:28:00;;;;;;;7.60;2.70;;;24.00;60.20;;;;;;5054514;28;20480;-65
2022/05/16 11:30:38;;;;;;;3.17;2.00;;;24.50;60.90;;;;;;5054603;28;20448;-65
2022/05/16 11:33:17;;;;;;;2.80;2.00;;;24.70;58.60;;;;;;5054708;28;20436;-65
2022/05/16 11:35:45;;;;;;;3.87;2.63;;;24.90;57.90;;;;;;5053847;28;20498;-66
2022/05/16 11:38:27;;;;;;;4.90;3.00;;;25.10;57.00;;;;;;5054132;28;20483;-65
2022/05/16 11:41:06;;;;;;;4.40;3.00;;;25.30;57.40;;;;;;5053854;28;21055;-65
2022/05/16 11:43:37;;;;;;;5.30;2.20;;;25.30;55.90;;;;;;5054372;28;20451;-65
2022/05/16 11:46:23;;;;;;;6.30;3.87;;;25.40;53.00;;;;;;5054311;28;21010;-65
2022/05/16 11:49:08;;;;;;;3.77;2.50;;;25.50;52.20;;;;;;5053806;28;20474;-65
2022/05/16 11:51:48;;;;;;;3.43;1.80;;;25.60;48.70;;;;;;5053810;28;20437;-65
2022/05/16 11:54:18;;;;;;;5.27;2.10;;;25.70;48.80;;;;;;5053793;28;20444;-65
2022/05/16 12:02:23;;;;;;;5.13;2.20;;;25.90;49.90;;;;;;5054214;28;20572;-65
2022/05/16 12:04:52;;;;;;;2.80;1.60;;;26.20;49.90;;;;;;5053342;28;20544;-65
2022/05/16 12:07:23;;;;;;;5.07;2.20;;;26.20;46.70;;;;;;5053351;28;20563;-65
2022/05/16 12:10:08;;;;;;;3.10;1.63;;;25.80;45.50;;;;;;5053474;28;20510;-65
2022/05/16 12:12:38;;;;;;;3.80;1.70;;;25.50;46.90;;;;;;5052133;28;20443;-65
2022/05/16 12:15:27;;;;;;;3.30;1.87;;;25.40;48.90;;;;;;5053746;28;20848;-65
2022/05/16 12:17:57;;;;;;;2.77;1.60;;;25.40;47.20;;;;;;5053809;28;20524;-65
2022/05/16 12:21:01;;;;;;;4.50;2.90;;;25.40;47.20;;;;;;5053262;28;20995;-65
2022/05/16 12:24:00;;;;;;;3.90;2.23;;;25.30;47.80;;;;;;5052654;28;20510;-65
2022/05/16 12:26:57;;;;;;;6.00;2.30;;;25.30;50.00;;;;;;5053042;28;20540;-65
2022/05/16 12:29:31;;;;;;;4.00;1.90;;;25.40;50.60;;;;;;5043692;28;20501;-65
2022/05/16 12:31:59;;;;;;;3.17;2.00;;;25.40;48.80;;;;;;5053419;28;20566;-65
2022/05/16 12:34:59;;;;;;;4.10;2.40;;;25.50;48.70;;;;;;5052394;28;20440;-65
2022/05/16 12:37:27;;;;;;;4.37;2.50;;;25.50;48.70;;;;;;5019917;28;20854;-64
2022/05/16 12:40:01;;;;;;;4.90;2.23;;;25.50;48.40;;;;;;5053076;28;20513;-65
2022/05/16 12:43:08;;;;;;;4.27;2.40;;;25.60;48.90;;;;;;5053582;28;20968;-65
2022/05/16 12:45:55;;;;;;;4.10;2.53;;;25.60;48.30;;;;;;5044695;28;20450;-65
2022/05/16 12:48:43;;;;;;;8.70;2.80;;;25.60;49.70;;;;;;5052899;28;20562;-65
2022/05/16 12:51:32;;;;;;;4.20;2.40;;;25.80;49.40;;;;;;5052943;28;20509;-65
2022/05/16 12:54:25;;;;;;;3.90;2.13;;;26.00;49.60;;;;;;5052978;28;20953;-65
2022/05/16 12:56:53;;;;;;;4.23;2.40;;;26.00;46.00;;;;;;5019492;28;20437;-65
2022/05/16 12:59:35;;;;;;;3.97;2.00;;;26.00;47.40;;;;;;5052699;28;20532;-65
2022/05/16 13:02:12;;;;;;;4.80;2.50;;;26.10;48.00;;;;;;5052970;28;20827;-65
2022/05/16 13:05:13;;;;;;;5.33;3.03;;;26.30;46.10;;;;;;5051777;28;20430;-65
2022/05/16 13:07:55;;;;;;;10.07;2.77;;;26.20;45.20;;;;;;5016301;28;21041;-66
2022/05/16 13:10:30;;;;;;;4.20;3.03;;;26.20;45.80;;;;;;5052899;28;20527;-64
2022/05/16 13:13:07;;;;;;;4.70;3.00;;;26.30;46.60;;;;;;5052915;28;20542;-64
2022/05/16 13:15:40;;;;;;;7.30;3.10;;;26.40;45.50;;;;;;5052540;28;20479;-65
2022/05/16 13:18:11;;;;;;;5.27;2.70;;;26.50;44.40;;;;;;5052738;28;20528;-64
2022/05/16 13:20:43;;;;;;;3.50;3.00;;;26.60;45.50;;;;;;5052577;28;20449;-65
2022/05/16 13:23:14;;;;;;;4.77;2.97;;;26.70;46.40;;;;;;5052714;28;20539;-65
2022/05/16 13:31:07;;;;;;;3.97;2.93;;;27.10;46.30;;;;;;5052797;28;20425;-65
2022/05/16 13:33:38;;;;;;;4.80;3.23;;;27.20;45.90;;;;;;5052534;28;20448;-65
2022/05/16 13:36:19;;;;;;;9.87;3.50;;;27.30;44.10;;;;;;5052375;28;20532;-65
2022/05/16 13:38:53;;;;;;;4.97;3.20;;;27.50;44.30;;;;;;5052313;28;20445;-65
2022/05/16 13:41:23;;;;;;;9.00;3.77;;;27.60;44.10;;;;;;5052633;28;20468;-65
2022/05/16 13:43:51;;;;;;;7.53;3.00;;;27.70;43.90;;;;;;5052182;28;20485;-65
2022/05/16 13:46:19;;;;;;;5.13;3.53;;;27.80;44.60;;;;;;5052077;28;20480;-65
2022/05/16 13:48:55;;;;;;;4.03;3.13;;;27.80;43.70;;;;;;5052508;28;20493;-65
2022/05/16 13:51:23;;;;;;;5.70;3.40;;;27.80;43.20;;;;;;5052423;28;20462;-65
2022/05/16 13:53:52;;;;;;;5.27;3.20;;;27.80;43.20;;;;;;5052295;28;20447;-65
2022/05/16 13:56:43;;;;;;;7.53;3.70;;;27.80;43.00;;;;;;5052298;28;20852;-65